Time;durP1;ratioP1;P1;durP2;ratioP2;P2;SDS_P1;SDS_P2;PMS_P1;PMS_P2;Temp;Humidity;BMP_temperature;BMP_pressure;BME280_temperature;BME280_humidity;BME280_pressure;Samples;Min_cycle;Max_cycle;Signal;HPM_P1;HPM_P2
2021/12/12 00:01:33;;;;;;;7.50;4.57;;;;;;;;;;6235661;23;20016;-44
2021/12/12 00:04:10;;;;;;;9.45;4.70;;;;;;;;;;6235784;23;20016;-47
2021/12/12 00:06:36;;;;;;;8.80;4.95;;;;;;;;;;6235864;23;20440;-45
2021/12/12 00:09:11;;;;;;;13.38;5.55;;;;;;;;;;6236465;23;20494;-43
2021/12/12 00:11:37;;;;;;;17.08;5.65;;;;;;;;;;6234990;23;20426;-46
2021/12/12 00:14:05;;;;;;;11.07;4.25;;;;;;;;;;6236448;23;20023;-46
2021/12/12 00:16:30;;;;;;;14.25;4.90;;;;;;;;;;6235303;23;20009;-44
2021/12/12 00:18:56;;;;;;;14.13;4.13;;;;;;;;;;6236741;23;20475;-44
2021/12/12 00:21:23;;;;;;;17.23;5.68;;;;;;;;;;6234745;23;20134;-44
2021/12/12 00:23:48;;;;;;;11.15;5.05;;;;;;;;;;6236123;23;20055;-44
2021/12/12 00:26:14;;;;;;;11.23;4.63;;;;;;;;;;6231344;23;20023;-47
2021/12/12 00:28:40;;;;;;;13.45;4.25;;;;;;;;;;6236028;23;20019;-43
2021/12/12 00:31:09;;;;;;;10.32;4.80;;;;;;;;;;6209035;23;20674;-46
2021/12/12 00:33:40;;;;;;;11.02;3.75;;;;;;;;;;6235441;22;20012;-45
2021/12/12 00:36:06;;;;;;;9.88;4.55;;;;;;;;;;6236458;22;20016;-46
2021/12/12 00:38:32;;;;;;;13.23;5.30;;;;;;;;;;6235441;22;20369;-45
2021/12/12 00:41:00;;;;;;;8.02;5.07;;;;;;;;;;6236760;22;20012;-50
2021/12/12 00:43:31;;;;;;;11.77;4.03;;;;;;;;;;6235280;22;20110;-48
2021/12/12 00:45:58;;;;;;;11.60;4.82;;;;;;;;;;6236673;22;20062;-47
2021/12/12 00:48:24;;;;;;;10.95;4.60;;;;;;;;;;6235211;22;20012;-49
2021/12/12 00:50:50;;;;;;;16.42;4.38;;;;;;;;;;6235935;22;20069;-50
2021/12/12 00:53:15;;;;;;;9.65;5.47;;;;;;;;;;6235168;22;20016;-45
2021/12/12 00:55:42;;;;;;;12.90;4.32;;;;;;;;;;6236108;22;20460;-45
2021/12/12 00:58:08;;;;;;;8.85;4.38;;;;;;;;;;6203430;23;20331;-44
2021/12/12 01:00:37;;;;;;;9.15;4.40;;;;;;;;;;6205591;22;20008;-45
2021/12/12 01:03:03;;;;;;;16.67;4.55;;;;;;;;;;6204755;22;20561;-47
2021/12/12 01:05:28;;;;;;;15.23;4.40;;;;;;;;;;6205372;22;20108;-46
2021/12/12 01:07:53;;;;;;;11.65;4.88;;;;;;;;;;6204812;22;20013;-46
2021/12/12 01:10:24;;;;;;;9.77;3.97;;;;;;;;;;6205522;22;20090;-45
2021/12/12 01:12:50;;;;;;;13.95;5.25;;;;;;;;;;6205149;22;20536;-47
2021/12/12 01:15:20;;;;;;;12.27;3.72;;;;;;;;;;6205471;22;20016;-45
2021/12/12 01:17:47;;;;;;;16.50;4.15;;;;;;;;;;6206141;22;20016;-45
2021/12/12 01:20:16;;;;;;;12.45;4.97;;;;;;;;;;6204938;22;20009;-44
2021/12/12 01:22:42;;;;;;;7.03;3.53;;;;;;;;;;6205966;22;20013;-48
2021/12/12 01:25:15;;;;;;;14.23;4.07;;;;;;;;;;6205693;22;20552;-45
2021/12/12 01:27:41;;;;;;;10.13;4.20;;;;;;;;;;6174928;23;20033;-45
2021/12/12 01:30:08;;;;;;;14.30;5.85;;;;;;;;;;6176182;23;20452;-45
2021/12/12 01:32:34;;;;;;;17.10;5.05;;;;;;;;;;6174475;23;20349;-44
2021/12/12 01:35:00;;;;;;;7.82;4.25;;;;;;;;;;6176116;23;20028;-45
2021/12/12 01:40:00;;;;;;;6.80;3.78;;;;;;;;;;6176159;23;20304;-45
2021/12/12 01:42:32;;;;;;;11.20;3.85;;;;;;;;;;6175003;23;20778;-44
2021/12/12 01:45:01;;;;;;;8.85;4.70;;;;;;;;;;6174977;23;20428;-44
2021/12/12 01:47:29;;;;;;;11.68;4.05;;;;;;;;;;6175053;23;20084;-46
2021/12/12 01:49:56;;;;;;;9.70;4.03;;;;;;;;;;6174926;23;20040;-44
2021/12/12 01:52:23;;;;;;;7.00;3.88;;;;;;;;;;6173173;23;20442;-44
2021/12/12 01:54:51;;;;;;;13.35;4.70;;;;;;;;;;6174981;23;20017;-44
2021/12/12 01:57:25;;;;;;;9.13;4.40;;;;;;;;;;6176350;23;20021;-44
2021/12/12 01:59:51;;;;;;;14.43;4.85;;;;;;;;;;6204896;23;20020;-46
2021/12/12 02:02:20;;;;;;;11.52;4.32;;;;;;;;;;6204817;23;20012;-45
2021/12/12 02:04:47;;;;;;;10.95;4.28;;;;;;;;;;6204889;23;20853;-45
2021/12/12 02:07:14;;;;;;;16.63;4.57;;;;;;;;;;6204647;23;20429;-44
2021/12/12 02:09:40;;;;;;;6.88;3.92;;;;;;;;;;6204404;23;20055;-46
2021/12/12 02:12:06;;;;;;;13.73;4.03;;;;;;;;;;6205418;23;20024;-45
2021/12/12 02:14:35;;;;;;;6.75;4.43;;;;;;;;;;6203873;23;20032;-44
2021/12/12 02:17:03;;;;;;;12.67;4.30;;;;;;;;;;6205271;23;20015;-44
2021/12/12 02:19:50;;;;;;;10.43;4.20;;;;;;;;;;6201620;23;20405;-44
2021/12/12 02:35:57;;;;;;;14.40;3.45;;;;;;;;;;6234774;23;20074;-44
2021/12/12 02:38:24;;;;;;;8.82;4.13;;;;;;;;;;6234708;23;20012;-45
2021/12/12 02:40:52;;;;;;;10.07;4.20;;;;;;;;;;6234640;23;20008;-45
2021/12/12 02:43:19;;;;;;;11.70;4.00;;;;;;;;;;6233970;23;20958;-46
2021/12/12 02:45:45;;;;;;;10.68;4.88;;;;;;;;;;6234899;23;20016;-45
2021/12/12 02:48:16;;;;;;;7.70;4.45;;;;;;;;;;6235409;23;20022;-45
2021/12/12 02:50:43;;;;;;;10.55;4.88;;;;;;;;;;6234873;22;20024;-47
2021/12/12 02:53:13;;;;;;;7.93;5.07;;;;;;;;;;6234897;23;20012;-45
2021/12/12 02:55:41;;;;;;;12.07;4.43;;;;;;;;;;6235211;23;20008;-46
2021/12/12 02:58:09;;;;;;;7.68;3.97;;;;;;;;;;6234228;23;20487;-44
2021/12/12 03:00:37;;;;;;;13.98;4.88;;;;;;;;;;6234667;23;20008;-44
2021/12/12 03:03:02;;;;;;;8.05;4.40;;;;;;;;;;6234177;23;20023;-44
2021/12/12 03:05:29;;;;;;;7.32;4.22;;;;;;;;;;6234387;23;20368;-43
2021/12/12 03:07:54;;;;;;;10.55;4.22;;;;;;;;;;6236784;23;20014;-45
2021/12/12 03:10:22;;;;;;;9.88;4.63;;;;;;;;;;6236647;23;20012;-46
2021/12/12 03:12:47;;;;;;;6.63;3.45;;;;;;;;;;6236371;23;20016;-44
2021/12/12 03:15:16;;;;;;;6.60;4.00;;;;;;;;;;6235861;23;20015;-44
2021/12/12 03:17:42;;;;;;;9.23;4.18;;;;;;;;;;6236264;23;20008;-44
2021/12/12 03:20:12;;;;;;;5.45;3.88;;;;;;;;;;6236940;23;20027;-44
2021/12/12 03:22:38;;;;;;;7.35;3.55;;;;;;;;;;6235692;23;20008;-44
2021/12/12 03:25:03;;;;;;;7.53;3.50;;;;;;;;;;6237034;23;20044;-45
2021/12/12 03:27:28;;;;;;;10.95;3.60;;;;;;;;;;6235694;23;20034;-43
2021/12/12 03:29:54;;;;;;;6.60;4.10;;;;;;;;;;6235551;23;20016;-43
2021/12/12 03:32:20;;;;;;;7.57;4.07;;;;;;;;;;6236111;23;20472;-44
2021/12/12 03:34:50;;;;;;;5.03;4.07;;;;;;;;;;6210081;23;20009;-44
2021/12/12 03:37:17;;;;;;;6.32;3.67;;;;;;;;;;6235906;22;20019;-44
2021/12/12 03:39:43;;;;;;;4.40;3.55;;;;;;;;;;6236862;22;20016;-45
2021/12/12 03:42:11;;;;;;;5.28;3.55;;;;;;;;;;6236235;22;20020;-44
2021/12/12 03:44:37;;;;;;;4.03;3.30;;;;;;;;;;6235764;22;20027;-46
2021/12/12 03:47:07;;;;;;;3.97;2.92;;;;;;;;;;6236530;22;20009;-44
2021/12/12 03:49:33;;;;;;;4.22;3.63;;;;;;;;;;6196608;22;20021;-44
2021/12/12 03:51:58;;;;;;;4.93;2.78;;;;;;;;;;6211736;22;20042;-44
2021/12/12 03:54:24;;;;;;;4.97;3.45;;;;;;;;;;6220759;22;20012;-45
2021/12/12 03:56:49;;;;;;;4.13;2.47;;;;;;;;;;6218813;22;20017;-44
2021/12/12 03:59:14;;;;;;;3.85;2.78;;;;;;;;;;6219129;22;20099;-44
2021/12/12 04:01:43;;;;;;;5.38;3.33;;;;;;;;;;6224298;22;20019;-43
2021/12/12 04:04:10;;;;;;;6.45;2.97;;;;;;;;;;6223884;22;20127;-45
2021/12/12 04:06:36;;;;;;;4.60;3.03;;;;;;;;;;6219485;22;20098;-47
2021/12/12 04:09:03;;;;;;;4.30;3.03;;;;;;;;;;6219526;22;20488;-46
2021/12/12 04:11:33;;;;;;;4.97;3.00;;;;;;;;;;6222471;22;20079;-45
2021/12/12 04:13:59;;;;;;;3.90;2.53;;;;;;;;;;6222095;22;20523;-46
2021/12/12 04:16:27;;;;;;;3.85;2.63;;;;;;;;;;6221316;22;20028;-46
2021/12/12 04:18:52;;;;;;;3.03;2.47;;;;;;;;;;6219107;22;20016;-46
2021/12/12 04:21:19;;;;;;;3.22;2.60;;;;;;;;;;6219769;22;20031;-45
2021/12/12 04:23:45;;;;;;;2.63;2.33;;;;;;;;;;6229315;22;20017;-47
2021/12/12 04:26:16;;;;;;;4.30;2.40;;;;;;;;;;6219659;22;20019;-48
2021/12/12 04:28:41;;;;;;;4.78;2.70;;;;;;;;;;6223486;22;20016;-46
2021/12/12 04:31:07;;;;;;;3.30;2.45;;;;;;;;;;6211103;23;20020;-49
2021/12/12 04:33:32;;;;;;;3.55;2.75;;;;;;;;;;6206346;23;20020;-45
2021/12/12 04:35:57;;;;;;;3.67;2.72;;;;;;;;;;6206026;22;20009;-45
2021/12/12 04:38:23;;;;;;;4.53;3.00;;;;;;;;;;6206589;22;20624;-43
2021/12/12 04:40:48;;;;;;;2.67;2.22;;;;;;;;;;6206341;23;20012;-46
2021/12/12 04:43:13;;;;;;;3.75;2.80;;;;;;;;;;6206000;23;20013;-42
2021/12/12 04:45:47;;;;;;;4.00;2.72;;;;;;;;;;6206616;23;20013;-44
2021/12/12 04:51:20;;;;;;;2.63;2.40;;;;;;;;;;6205317;22;20027;-44
2021/12/12 04:53:54;;;;;;;2.67;2.20;;;;;;;;;;6223478;22;20023;-43
2021/12/12 04:56:25;;;;;;;4.30;2.72;;;;;;;;;;6208611;22;20036;-44
2021/12/12 04:58:54;;;;;;;8.07;2.53;;;;;;;;;;6224045;22;20023;-44
2021/12/12 05:01:25;;;;;;;3.83;2.17;;;;;;;;;;6222071;22;20019;-44
2021/12/12 05:04:02;;;;;;;4.90;2.53;;;;;;;;;;6217957;22;20643;-43
2021/12/12 05:06:36;;;;;;;3.88;2.40;;;;;;;;;;6221566;22;20028;-45
2021/12/12 05:09:05;;;;;;;3.40;2.50;;;;;;;;;;6223610;22;20023;-43
2021/12/12 05:11:35;;;;;;;3.72;2.60;;;;;;;;;;6219599;22;20357;-43
2021/12/12 05:14:07;;;;;;;4.03;2.33;;;;;;;;;;6218060;22;20453;-44
2021/12/12 05:16:35;;;;;;;2.92;2.40;;;;;;;;;;6222655;22;20758;-45
2021/12/12 05:19:06;;;;;;;3.38;2.30;;;;;;;;;;6223393;22;20013;-44
2021/12/12 05:21:34;;;;;;;2.50;2.30;;;;;;;;;;6219196;22;20017;-45
2021/12/12 05:24:00;;;;;;;2.33;1.92;;;;;;;;;;6218019;22;20052;-44
2021/12/12 05:26:29;;;;;;;2.45;1.92;;;;;;;;;;6220570;22;20024;-43
2021/12/12 05:29:03;;;;;;;3.72;2.10;;;;;;;;;;6223344;22;20040;-44
2021/12/12 05:31:30;;;;;;;3.83;2.05;;;;;;;;;;6219933;22;20039;-43
2021/12/12 05:33:55;;;;;;;2.95;2.35;;;;;;;;;;6217786;22;20348;-44
2021/12/12 05:36:21;;;;;;;3.13;2.28;;;;;;;;;;6220004;22;20448;-43
2021/12/12 05:38:47;;;;;;;3.83;2.80;;;;;;;;;;6223386;22;20016;-44
2021/12/12 05:41:13;;;;;;;2.67;2.20;;;;;;;;;;6223048;22;20375;-44
2021/12/12 05:43:39;;;;;;;3.90;2.10;;;;;;;;;;6218322;22;20020;-46
2021/12/12 05:46:04;;;;;;;5.28;2.60;;;;;;;;;;6218580;22;20016;-44
2021/12/12 05:48:30;;;;;;;3.25;2.50;;;;;;;;;;6221523;22;20013;-44
2021/12/12 05:50:55;;;;;;;4.65;3.03;;;;;;;;;;6222930;22;20024;-43
2021/12/12 05:53:21;;;;;;;5.72;2.80;;;;;;;;;;6220411;22;20024;-44
2021/12/12 05:55:46;;;;;;;5.28;3.45;;;;;;;;;;6218371;22;20013;-45
2021/12/12 05:58:13;;;;;;;5.90;3.10;;;;;;;;;;6217967;22;20017;-42
2021/12/12 06:00:49;;;;;;;3.55;3.00;;;;;;;;;;6223415;22;20366;-43
2021/12/12 06:03:16;;;;;;;5.28;3.00;;;;;;;;;;6221236;22;20016;-43
2021/12/12 06:05:42;;;;;;;3.50;2.60;;;;;;;;;;6218479;22;20008;-45
2021/12/12 06:08:08;;;;;;;5.93;3.45;;;;;;;;;;6217458;22;20016;-43
2021/12/12 06:10:35;;;;;;;6.22;3.13;;;;;;;;;;6222283;22;20008;-44
2021/12/12 06:13:01;;;;;;;6.32;3.05;;;;;;;;;;6222813;22;20016;-46
2021/12/12 06:15:28;;;;;;;5.90;3.17;;;;;;;;;;6219933;22;20016;-43
2021/12/12 06:17:54;;;;;;;9.63;3.53;;;;;;;;;;6217814;22;20055;-45
2021/12/12 06:20:19;;;;;;;6.10;3.20;;;;;;;;;;6219159;22;20016;-44
2021/12/12 06:22:46;;;;;;;9.82;3.00;;;;;;;;;;6223278;22;20012;-47
2021/12/12 06:25:11;;;;;;;8.95;3.10;;;;;;;;;;6222387;22;20038;-44
2021/12/12 06:27:37;;;;;;;7.15;3.75;;;;;;;;;;6217790;22;20028;-48
2021/12/12 06:30:05;;;;;;;10.48;3.40;;;;;;;;;;6217400;22;20012;-47
2021/12/12 06:32:31;;;;;;;7.28;2.92;;;;;;;;;;6220857;22;20008;-44
2021/12/12 06:34:57;;;;;;;13.55;3.30;;;;;;;;;;6220139;22;20015;-45
2021/12/12 06:37:22;;;;;;;7.13;3.35;;;;;;;;;;6214811;22;20439;-43
2021/12/12 06:39:48;;;;;;;5.68;3.05;;;;;;;;;;6214723;22;20013;-44
2021/12/12 06:42:13;;;;;;;8.63;3.10;;;;;;;;;;6218763;22;20436;-43
2021/12/12 06:44:40;;;;;;;6.03;3.10;;;;;;;;;;6224902;22;20115;-43
2021/12/12 06:47:06;;;;;;;6.20;3.00;;;;;;;;;;6224596;22;20154;-44
2021/12/12 06:49:32;;;;;;;8.73;2.95;;;;;;;;;;6220463;22;20016;-44
2021/12/12 06:51:59;;;;;;;7.15;3.33;;;;;;;;;;6219641;22;20009;-48
2021/12/12 06:54:25;;;;;;;6.85;2.25;;;;;;;;;;6222002;22;20893;-45
2021/12/12 06:56:52;;;;;;;7.40;3.40;;;;;;;;;;6224518;22;20023;-45
2021/12/12 06:59:18;;;;;;;9.60;2.85;;;;;;;;;;6223181;22;20476;-45
2021/12/12 07:01:43;;;;;;;7.18;2.70;;;;;;;;;;6217114;22;20078;-48
2021/12/12 07:04:10;;;;;;;7.80;2.80;;;;;;;;;;6217006;22;20524;-43
2021/12/12 07:06:36;;;;;;;8.80;3.08;;;;;;;;;;6221453;22;20027;-45
2021/12/12 07:09:03;;;;;;;8.18;2.85;;;;;;;;;;6222361;22;20448;-44
2021/12/12 07:11:32;;;;;;;5.30;2.55;;;;;;;;;;6217527;22;20440;-44
2021/12/12 07:13:57;;;;;;;6.32;2.00;;;;;;;;;;6216253;22;20451;-44
2021/12/12 07:16:23;;;;;;;7.93;2.60;;;;;;;;;;6217711;22;20017;-44
2021/12/12 07:18:49;;;;;;;8.30;2.15;;;;;;;;;;6222053;22;20008;-45
2021/12/12 07:21:15;;;;;;;6.32;2.17;;;;;;;;;;6220509;22;20008;-45
2021/12/12 07:23:41;;;;;;;10.00;2.42;;;;;;;;;;6216750;22;20067;-44
2021/12/12 07:26:08;;;;;;;8.00;2.22;;;;;;;;;;6216404;22;20019;-44
2021/12/12 07:28:35;;;;;;;12.85;2.85;;;;;;;;;;6220375;22;20031;-44
2021/12/12 07:31:02;;;;;;;7.45;2.33;;;;;;;;;;6222325;22;20638;-45
2021/12/12 07:33:29;;;;;;;5.93;2.38;;;;;;;;;;6217852;22;20020;-43
2021/12/12 07:35:57;;;;;;;6.75;2.25;;;;;;;;;;6216579;22;20071;-47
2021/12/12 07:38:22;;;;;;;8.55;1.95;;;;;;;;;;6216800;22;20091;-43
2021/12/12 07:40:48;;;;;;;4.80;2.33;;;;;;;;;;6221375;22;20424;-43
2021/12/12 07:43:13;;;;;;;4.13;1.75;;;;;;;;;;6221307;22;20016;-46
2021/12/12 07:45:39;;;;;;;4.43;2.17;;;;;;;;;;6214960;22;20015;-44
2021/12/12 07:48:06;;;;;;;2.97;1.73;;;;;;;;;;6216951;22;20055;-43
2021/12/12 07:50:31;;;;;;;5.40;1.70;;;;;;;;;;6219379;22;20101;-43
2021/12/12 07:52:57;;;;;;;4.10;1.55;;;;;;;;;;6220537;22;20035;-44
2021/12/12 07:55:23;;;;;;;3.10;1.90;;;;;;;;;;6221142;22;20496;-44
2021/12/12 07:57:48;;;;;;;7.88;2.13;;;;;;;;;;6219645;22;20448;-43
2021/12/12 08:00:16;;;;;;;7.65;1.80;;;;;;;;;;6218860;22;20008;-44
2021/12/12 08:02:42;;;;;;;6.28;2.03;;;;;;;;;;6224982;22;20012;-43
2021/12/12 08:05:08;;;;;;;3.78;1.80;;;;;;;;;;6224184;22;20020;-44
2021/12/12 08:07:36;;;;;;;4.38;1.60;;;;;;;;;;6218941;22;20071;-45
2021/12/12 08:10:02;;;;;;;10.52;1.95;;;;;;;;;;6218498;22;20103;-44
2021/12/12 08:12:28;;;;;;;2.80;1.63;;;;;;;;;;6222379;22;20020;-45
2021/12/12 08:14:54;;;;;;;3.83;2.00;;;;;;;;;;6223846;22;20113;-43
2021/12/12 08:17:20;;;;;;;6.97;1.63;;;;;;;;;;6222493;22;20452;-44
2021/12/12 08:19:47;;;;;;;6.80;1.73;;;;;;;;;;6218833;22;20043;-43
2021/12/12 08:22:12;;;;;;;9.05;2.10;;;;;;;;;;6218969;22;20024;-44
2021/12/12 08:24:39;;;;;;;10.55;1.83;;;;;;;;;;6224128;22;20016;-43
2021/12/12 08:27:05;;;;;;;10.55;1.90;;;;;;;;;;6223696;22;20379;-43
2021/12/12 08:29:31;;;;;;;7.40;1.95;;;;;;;;;;6218841;22;20016;-46
2021/12/12 08:31:56;;;;;;;6.60;1.80;;;;;;;;;;6218821;22;20040;-43
2021/12/12 08:34:22;;;;;;;7.95;1.88;;;;;;;;;;6219697;22;20043;-44
2021/12/12 08:36:49;;;;;;;8.00;2.10;;;;;;;;;;6220318;22;20016;-46
2021/12/12 08:39:15;;;;;;;6.40;2.20;;;;;;;;;;6219504;22;20008;-45
2021/12/12 08:41:41;;;;;;;4.15;1.48;;;;;;;;;;6216451;22;20019;-46
2021/12/12 08:44:09;;;;;;;6.43;1.98;;;;;;;;;;6215667;22;20021;-47
2021/12/12 08:46:36;;;;;;;4.78;1.40;;;;;;;;;;6220277;22;20083;-48
2021/12/12 08:49:02;;;;;;;4.65;1.55;;;;;;;;;;6220620;22;20034;-45
2021/12/12 08:51:31;;;;;;;8.88;1.67;;;;;;;;;;6218054;22;20416;-44
2021/12/12 08:54:03;;;;;;;8.90;1.73;;;;;;;;;;6213311;22;20094;-43
2021/12/12 08:56:41;;;;;;;11.75;1.90;;;;;;;;;;6221016;22;20017;-43
2021/12/12 08:59:07;;;;;;;4.50;1.45;;;;;;;;;;6221873;22;20016;-44
2021/12/12 09:01:32;;;;;;;1.60;1.33;;;;;;;;;;6217520;22;20013;-45
2021/12/12 09:03:59;;;;;;;8.68;2.63;;;;;;;;;;6218348;22;20116;-42
2021/12/12 09:06:33;;;;;;;5.40;2.17;;;;;;;;;;6220480;22;20028;-42
2021/12/12 09:09:03;;;;;;;3.45;1.63;;;;;;;;;;6221301;22;20873;-44
2021/12/12 09:11:42;;;;;;;4.97;1.42;;;;;;;;;;6218188;22;20639;-43
2021/12/12 09:14:15;;;;;;;7.38;1.90;;;;;;;;;;6216976;22;20013;-47
2021/12/12 09:16:42;;;;;;;8.38;2.33;;;;;;;;;;6216280;22;20475;-46
2021/12/12 09:19:34;;;;;;;4.60;1.50;;;;;;;;;;6217919;22;20051;-44
2021/12/12 09:22:09;;;;;;;5.03;2.03;;;;;;;;;;6219093;22;20083;-46
2021/12/12 09:24:45;;;;;;;8.00;2.03;;;;;;;;;;6218717;22;20020;-46
2021/12/12 09:27:14;;;;;;;5.57;1.38;;;;;;;;;;6218455;22;20179;-46
2021/12/12 09:29:50;;;;;;;7.22;2.13;;;;;;;;;;6235827;22;20344;-44
2021/12/12 09:32:42;;;;;;;5.32;1.88;;;;;;;;;;6235518;22;20035;-45
2021/12/12 09:35:11;;;;;;;5.05;2.17;;;;;;;;;;6199745;22;20682;-43
2021/12/12 09:37:39;;;;;;;11.07;1.88;;;;;;;;;;6235750;22;20471;-44
2021/12/12 09:40:12;;;;;;;3.03;1.45;;;;;;;;;;6235399;22;20023;-45
2021/12/12 09:42:38;;;;;;;2.67;1.65;;;;;;;;;;6223232;22;20475;-45
2021/12/12 09:45:21;;;;;;;4.40;1.75;;;;;;;;;;6223373;22;20040;-44
2021/12/12 09:51:14;;;;;;;7.43;2.50;;;;;;;;;;6217226;22;20543;-45
2021/12/12 09:51:15;;;;;;;4.38;1.45;;;;;;;;;;6222364;22;20032;-46
2021/12/12 09:53:49;;;;;;;7.97;2.53;;;;;;;;;;6217865;22;20036;-45
2021/12/12 09:56:21;;;;;;;12.73;1.90;;;;;;;;;;6217747;22;20058;-45
2021/12/12 09:58:49;;;;;;;3.33;1.60;;;;;;;;;;6223494;22;20027;-44
2021/12/12 10:01:20;;;;;;;7.82;2.03;;;;;;;;;;6208944;22;20074;-45
2021/12/12 10:03:45;;;;;;;3.55;2.00;;;;;;;;;;6214166;23;20024;-46
2021/12/12 10:06:16;;;;;;;10.00;2.63;;;;;;;;;;6205735;23;20017;-45
2021/12/12 10:08:54;;;;;;;4.85;2.00;;;;;;;;;;6217566;22;20226;-44
2021/12/12 10:11:20;;;;;;;4.38;1.40;;;;;;;;;;6217110;22;20341;-45
2021/12/12 10:13:47;;;;;;;6.30;1.80;;;;;;;;;;6223453;22;20012;-45
2021/12/12 10:16:18;;;;;;;4.25;1.15;;;;;;;;;;6221430;22;20044;-45
2021/12/12 10:18:51;;;;;;;6.75;1.85;;;;;;;;;;6218507;22;20338;-44
2021/12/12 10:21:33;;;;;;;4.97;1.33;;;;;;;;;;6218191;22;20016;-45
2021/12/12 10:24:07;;;;;;;7.60;1.77;;;;;;;;;;6211181;23;20032;-46
2021/12/12 10:26:44;;;;;;;3.28;1.25;;;;;;;;;;6204219;23;20020;-45
2021/12/12 10:29:16;;;;;;;2.25;1.20;;;;;;;;;;6218161;22;20012;-46
2021/12/12 10:31:50;;;;;;;7.22;2.97;;;;;;;;;;6217120;22;20009;-44
2021/12/12 10:34:15;;;;;;;3.08;1.30;;;;;;;;;;6218418;22;20091;-44
2021/12/12 10:36:50;;;;;;;3.93;1.43;;;;;;;;;;6223078;22;20039;-46
2021/12/12 10:39:21;;;;;;;5.97;2.63;;;;;;;;;;6221748;22;20253;-48
2021/12/12 10:41:54;;;;;;;3.92;1.15;;;;;;;;;;6218038;22;20008;-45
2021/12/12 10:44:28;;;;;;;2.20;1.10;;;;;;;;;;6218527;22;20095;-47
2021/12/12 10:47:14;;;;;;;7.07;2.15;;;;;;;;;;6222766;22;20107;-45
2021/12/12 10:49:43;;;;;;;3.03;1.48;;;;;;;;;;6217788;22;20031;-45
2021/12/12 10:52:10;;;;;;;3.33;1.30;;;;;;;;;;6217496;22;20091;-45
2021/12/12 10:54:38;;;;;;;4.63;0.85;;;;;;;;;;6218536;22;20052;-45
2021/12/12 10:57:07;;;;;;;2.85;1.90;;;;;;;;;;6221305;22;20464;-46
2021/12/12 10:59:39;;;;;;;5.22;1.85;;;;;;;;;;6216986;22;20016;-46
2021/12/12 11:02:08;;;;;;;3.47;1.25;;;;;;;;;;6215296;22;20901;-46
2021/12/12 11:04:37;;;;;;;5.47;1.30;;;;;;;;;;6221614;22;20026;-47
2021/12/12 11:07:05;;;;;;;8.68;1.58;;;;;;;;;;6223334;22;20086;-46
2021/12/12 11:09:34;;;;;;;4.28;1.50;;;;;;;;;;6217688;22;20448;-45
2021/12/12 11:11:59;;;;;;;7.93;1.33;;;;;;;;;;6217785;22;20013;-45
2021/12/12 11:14:29;;;;;;;2.40;1.17;;;;;;;;;;6218824;22;20032;-46
2021/12/12 11:17:03;;;;;;;5.20;1.25;;;;;;;;;;6222629;22;20237;-45
2021/12/12 11:19:31;;;;;;;5.03;1.50;;;;;;;;;;6218813;22;20012;-43
2021/12/12 11:22:02;;;;;;;4.78;2.33;;;;;;;;;;6217410;22;20078;-43
2021/12/12 11:24:31;;;;;;;3.33;1.48;;;;;;;;;;6220426;22;20054;-43
2021/12/12 11:27:01;;;;;;;6.97;1.98;;;;;;;;;;6216757;22;20458;-43
2021/12/12 11:29:33;;;;;;;4.03;1.67;;;;;;;;;;6218193;22;20020;-43
2021/12/12 11:32:02;;;;;;;4.03;1.42;;;;;;;;;;6216493;22;20024;-43
2021/12/12 11:34:27;;;;;;;7.53;1.33;;;;;;;;;;6219461;22;20036;-42
2021/12/12 11:37:14;;;;;;;3.72;1.50;;;;;;;;;;6220906;22;20376;-42
2021/12/12 11:40:01;;;;;;;5.50;1.42;;;;;;;;;;6216684;22;20440;-42
2021/12/12 11:42:37;;;;;;;4.05;1.60;;;;;;;;;;6204920;22;20835;-42
2021/12/12 11:45:05;;;;;;;6.75;2.20;;;;;;;;;;6221301;22;20030;-42
2021/12/12 11:47:40;;;;;;;10.40;2.20;;;;;;;;;;6216647;22;20119;-43
2021/12/12 11:50:07;;;;;;;3.53;1.55;;;;;;;;;;6215849;22;20730;-42
2021/12/12 11:52:45;;;;;;;4.20;1.70;;;;;;;;;;6219940;22;20012;-42
2021/12/12 11:55:18;;;;;;;4.10;1.60;;;;;;;;;;6221691;22;20012;-42
2021/12/12 11:57:52;;;;;;;6.75;1.90;;;;;;;;;;6221512;22;20016;-42
2021/12/12 12:00:21;;;;;;;5.72;1.77;;;;;;;;;;6219324;22;20020;-44
2021/12/12 12:02:56;;;;;;;6.20;1.80;;;;;;;;;;6215975;22;20043;-44
2021/12/12 12:05:24;;;;;;;7.22;2.00;;;;;;;;;;6217304;22;20036;-42
2021/12/12 12:07:57;;;;;;;6.93;1.70;;;;;;;;;;6221788;22;20035;-45
2021/12/12 12:10:26;;;;;;;5.80;1.80;;;;;;;;;;6218221;22;20087;-43
2021/12/12 12:12:57;;;;;;;3.92;1.85;;;;;;;;;;6214433;23;20592;-43
2021/12/12 12:15:46;;;;;;;9.13;2.13;;;;;;;;;;6203245;23;20020;-42
2021/12/12 12:18:30;;;;;;;6.07;2.28;;;;;;;;;;6215037;22;20341;-42
2021/12/12 12:20:57;;;;;;;7.45;1.60;;;;;;;;;;6221238;22;20012;-43
2021/12/12 12:29:26;;;;;;;1.75;1.40;;;;;;;;;;6221908;22;20113;-46
2021/12/12 12:32:04;;;;;;;5.97;1.00;;;;;;;;;;6215205;22;20035;-44
2021/12/12 12:34:47;;;;;;;1.60;0.70;;;;;;;;;;6219118;22;20088;-43
2021/12/12 12:37:31;;;;;;;6.20;1.23;;;;;;;;;;6205469;22;20017;-43
2021/12/12 12:40:15;;;;;;;4.05;1.02;;;;;;;;;;6220662;22;20055;-44
2021/12/12 12:42:52;;;;;;;3.05;0.98;;;;;;;;;;6215329;22;20009;-42
2021/12/12 12:45:30;;;;;;;0.85;0.60;;;;;;;;;;6216770;22;20028;-42
2021/12/12 12:48:14;;;;;;;2.58;0.75;;;;;;;;;;6220181;22;20012;-44
2021/12/12 12:50:42;;;;;;;2.97;0.88;;;;;;;;;;6214994;22;20928;-44
2021/12/12 12:53:11;;;;;;;5.40;0.77;;;;;;;;;;6216123;22;20017;-44
2021/12/12 12:55:39;;;;;;;1.88;0.60;;;;;;;;;;6220218;22;20079;-45
2021/12/12 12:58:30;;;;;;;1.02;0.80;;;;;;;;;;6221491;22;20456;-42
2021/12/12 13:01:14;;;;;;;2.60;0.60;;;;;;;;;;6214220;22;20154;-43
2021/12/12 13:03:58;;;;;;;1.75;0.95;;;;;;;;;;6212242;23;20028;-43
2021/12/12 13:06:42;;;;;;;4.22;0.90;;;;;;;;;;6201076;23;20504;-44
2021/12/12 13:09:16;;;;;;;2.22;0.65;;;;;;;;;;6215906;22;20066;-43
2021/12/12 13:11:47;;;;;;;0.30;0.28;;;;;;;;;;6225888;22;20420;-42
2021/12/12 13:14:31;;;;;;;0.73;0.50;;;;;;;;;;6215280;22;20082;-49
2021/12/12 13:17:12;;;;;;;0.50;0.50;;;;;;;;;;6221016;22;20480;-46
2021/12/12 13:19:38;;;;;;;0.82;0.40;;;;;;;;;;6214917;22;20004;-44
2021/12/12 13:22:03;;;;;;;2.28;0.90;;;;;;;;;;6215497;22;20108;-44
2021/12/12 13:24:36;;;;;;;1.10;0.60;;;;;;;;;;6218978;22;20337;-44
2021/12/12 13:27:18;;;;;;;2.90;0.60;;;;;;;;;;6219533;22;20479;-43
2021/12/12 13:29:44;;;;;;;0.80;0.30;;;;;;;;;;6214812;22;20036;-42
2021/12/12 13:32:14;;;;;;;0.50;0.50;;;;;;;;;;6215387;22;20023;-43
2021/12/12 13:34:46;;;;;;;1.23;0.90;;;;;;;;;;6232378;22;20012;-42
2021/12/12 13:37:19;;;;;;;2.15;0.75;;;;;;;;;;6232582;22;20119;-42
2021/12/12 13:39:50;;;;;;;4.45;0.90;;;;;;;;;;6232285;22;20015;-43
2021/12/12 13:42:29;;;;;;;2.92;0.60;;;;;;;;;;6232793;22;20020;-42
2021/12/12 13:44:55;;;;;;;;;;;;;;;;;;6231124;23;20053;-42
2021/12/12 13:47:32;;;;;;;1.17;0.82;;;;;;;;;;6232213;22;19941;-42
2021/12/12 13:50:00;;;;;;;1.52;0.60;;;;;;;;;;6232048;22;20549;-45
2021/12/12 13:52:25;;;;;;;1.73;0.50;;;;;;;;;;6231747;22;20046;-43
2021/12/12 13:54:57;;;;;;;1.15;0.50;;;;;;;;;;6233213;22;20016;-44
2021/12/12 13:57:28;;;;;;;3.30;0.45;;;;;;;;;;6230271;22;20016;-44
2021/12/12 14:00:10;;;;;;;0.82;0.60;;;;;;;;;;6232988;22;20023;-43
2021/12/12 14:02:37;;;;;;;5.53;0.55;;;;;;;;;;6232099;22;20428;-43
2021/12/12 14:05:16;;;;;;;1.70;0.88;;;;;;;;;;6232263;22;20024;-43
2021/12/12 14:07:51;;;;;;;1.85;0.88;;;;;;;;;;6232682;22;20016;-44
2021/12/12 14:10:21;;;;;;;1.42;0.70;;;;;;;;;;6231940;22;20016;-44
2021/12/12 14:12:47;;;;;;;2.00;0.85;;;;;;;;;;6233174;22;20036;-44
2021/12/12 14:15:24;;;;;;;3.95;1.00;;;;;;;;;;6231842;22;20395;-44
2021/12/12 14:17:51;;;;;;;2.25;1.73;;;;;;;;;;6231991;22;20073;-45
2021/12/12 14:20:43;;;;;;;1.52;0.93;;;;;;;;;;6232264;22;20512;-43
2021/12/12 14:23:12;;;;;;;2.42;0.73;;;;;;;;;;6228798;22;20130;-45
2021/12/12 14:25:40;;;;;;;2.63;1.38;;;;;;;;;;6233170;22;20020;-46
2021/12/12 14:28:06;;;;;;;3.10;0.90;;;;;;;;;;6232069;22;20471;-46
2021/12/12 14:30:33;;;;;;;1.40;0.77;;;;;;;;;;6231953;22;20468;-43
2021/12/12 14:33:03;;;;;;;3.70;1.08;;;;;;;;;;6232270;22;20020;-44
2021/12/12 14:35:32;;;;;;;2.38;0.70;;;;;;;;;;6232756;22;20182;-44
2021/12/12 14:37:58;;;;;;;5.03;0.93;;;;;;;;;;6231647;22;20067;-46
2021/12/12 14:40:25;;;;;;;3.90;1.00;;;;;;;;;;6232714;22;20725;-47
2021/12/12 14:42:57;;;;;;;2.92;1.30;;;;;;;;;;6232866;22;20023;-44
2021/12/12 14:45:28;;;;;;;4.80;1.00;;;;;;;;;;6231601;22;20028;-42
2021/12/12 14:47:56;;;;;;;2.45;1.13;;;;;;;;;;6233324;22;20012;-45
2021/12/12 14:50:23;;;;;;;1.75;0.82;;;;;;;;;;6230998;22;20034;-43
2021/12/12 14:52:55;;;;;;;1.58;0.95;;;;;;;;;;6232698;22;20012;-44
2021/12/12 14:55:21;;;;;;;2.92;1.10;;;;;;;;;;6231903;22;20012;-44
2021/12/12 14:57:48;;;;;;;6.47;1.00;;;;;;;;;;6232904;22;20452;-44
2021/12/12 15:00:25;;;;;;;1.58;0.73;;;;;;;;;;6231048;22;20020;-44
2021/12/12 15:02:50;;;;;;;1.83;0.80;;;;;;;;;;6233440;22;20036;-45
2021/12/12 15:05:15;;;;;;;3.92;1.08;;;;;;;;;;6234250;22;20078;-44
2021/12/12 15:07:44;;;;;;;3.23;0.80;;;;;;;;;;6233573;22;20012;-42
2021/12/12 15:10:18;;;;;;;3.05;1.17;;;;;;;;;;6234653;22;20811;-42
2021/12/12 15:12:48;;;;;;;6.45;1.50;;;;;;;;;;6233968;22;20020;-43
2021/12/12 15:15:25;;;;;;;4.20;1.05;;;;;;;;;;6234363;22;20016;-42
2021/12/12 15:17:55;;;;;;;7.80;1.30;;;;;;;;;;6234147;22;20136;-45
2021/12/12 15:20:23;;;;;;;4.97;1.40;;;;;;;;;;6233774;22;20088;-45